MUE weather

Waimea Kohala Airport
Kamuela, Hawaii, United States

Public forecast

Using degrees Fahrenheit for public forecast. Weather courtesy of forecast.io.

METAR (pilot weather report)

Closest report is Bradshaw Army Airfield, 15.8 nm (29.4 km) SSE. Retrieved 2019/07/23 14:56 UTC (28 minutes ago):

PHSF 231456Z AUTO 13003KT M M FEW120 SCT150 09/05 A3032 RMK AO2 SLP162 WND DATA ESTMD T00890051 PWINO $

TAF (pilot weather forecast)

Closest forecast is Ellison Onizuka Kona International At Keahole Airport, 26.5 nm (49.1 km) SW. Retrieved 2019/07/23 12:42 UTC (3 hours ago):

TAF PHKO 231139Z 2312/2412 14006KT P6SM BKN250 FM232000 22010KT P6SM FEW030 BKN060 FM240600 10006KT P6SM SCT060